Time,TemperatureF,DewpointF,PressureIn,WindDirection,WindDirectionDegrees,WindSpeedMPH,WindSpeedGustMPH,Humidity,HourlyPrecipIn,Conditions,Clouds,dailyrainin,SoftwareType,DateUTC
2013-04-27 00:05:00,55.2,47.0,30.36,South,175,0.0,-999.0,74,-99.99,,,0.00,weatherlink.com 1.10,2013-04-27 04:05:00,
2013-04-27 00:20:00,54.9,47.0,30.35,South,175,0.0,-999.0,75,-99.99,,,0.00,weatherlink.com 1.10,2013-04-27 04:20:00,
2013-04-27 00:58:00,54.6,47.0,30.35,South,175,0.0,-999.0,75,-99.99,,,0.00,weatherlink.com 1.10,2013-04-27 04:58:00,
2013-04-27 01:05:00,54.0,46.0,30.36,South,175,0.0,-999.0,75,-99.99,,,0.00,weatherlink.com 1.10,2013-04-27 05:05:00,
2013-04-27 01:20:00,53.9,47.0,30.37,South,175,0.0,-999.0,77,-99.99,,,0.00,weatherlink.com 1.10,2013-04-27 05:20:00,
2013-04-27 01:58:00,53.6,47.0,30.37,South,175,0.0,-999.0,77,-99.99,,,0.00,weatherlink.com 1.10,2013-04-27 05:58:00,
2013-04-27 02:05:00,54.0,47.0,30.37,South,175,0.0,-999.0,77,-99.99,,,0.00,weatherlink.com 1.10,2013-04-27 06:05:00,
2013-04-27 02:20:00,54.6,46.0,30.37,South,175,0.0,-999.0,73,-99.99,,,0.00,weatherlink.com 1.10,2013-04-27 06:20:00,
2013-04-27 02:58:00,55.3,45.0,30.37,South,175,0.0,-999.0,68,-99.99,,,0.00,weatherlink.com 1.10,2013-04-27 06:58:00,
2013-04-27 03:05:00,55.7,45.0,30.36,South,175,0.0,-999.0,68,-99.99,,,0.00,weatherlink.com 1.10,2013-04-27 07:05:00,
2013-04-27 03:20:00,55.5,45.0,30.36,South,175,0.0,-999.0,69,-99.99,,,0.00,weatherlink.com 1.10,2013-04-27 07:20:00,
2013-04-27 03:58:00,55.3,46.0,30.36,South,175,0.0,-999.0,71,-99.99,,,0.00,weatherlink.com 1.10,2013-04-27 07:58:00,
2013-04-27 04:05:00,55.0,46.0,30.36,South,175,0.0,-999.0,72,-99.99,,,0.00,weatherlink.com 1.10,2013-04-27 08:05:00,
2013-04-27 04:20:00,54.9,47.0,30.36,South,175,0.0,-999.0,75,-99.99,,,0.00,weatherlink.com 1.10,2013-04-27 08:20:00,
2013-04-27 04:58:00,54.7,46.0,30.35,South,175,0.0,-999.0,73,-99.99,,,0.00,weatherlink.com 1.10,2013-04-27 08:58:00,
2013-04-27 05:05:00,54.1,46.0,30.34,South,175,0.0,-999.0,74,-99.99,,,0.00,weatherlink.com 1.10,2013-04-27 09:05:00,
2013-04-27 05:20:00,54.0,46.0,30.34,South,175,0.0,-999.0,75,-99.99,,,0.00,weatherlink.com 1.10,2013-04-27 09:20:00,
2013-04-27 05:58:00,53.8,46.0,30.34,South,175,0.0,-999.0,76,-99.99,,,0.00,weatherlink.com 1.10,2013-04-27 09:58:00,
2013-04-27 06:05:00,53.5,47.0,30.35,South,175,0.0,-999.0,79,-99.99,,,0.00,weatherlink.com 1.10,2013-04-27 10:05:00,
2013-04-27 06:20:00,53.3,47.0,30.36,South,175,0.0,-999.0,80,-99.99,,,0.00,weatherlink.com 1.10,2013-04-27 10:20:00,
2013-04-27 06:58:00,53.1,47.0,30.37,South,175,0.0,-999.0,81,-99.99,,,0.00,weatherlink.com 1.10,2013-04-27 10:58:00,
2013-04-27 07:05:00,52.8,48.0,30.37,South,175,0.0,-999.0,83,-99.99,,,0.00,weatherlink.com 1.10,2013-04-27 11:05:00,
2013-04-27 07:20:00,52.8,48.0,30.37,South,175,0.0,-999.0,83,-99.99,,,0.00,weatherlink.com 1.10,2013-04-27 11:20:00,
2013-04-27 07:58:00,53.0,48.0,30.37,South,175,0.0,-999.0,84,-99.99,,,0.00,weatherlink.com 1.10,2013-04-27 11:58:00,
2013-04-27 08:05:00,54.2,49.0,30.38,South,175,0.0,-999.0,82,-99.99,,,0.00,weatherlink.com 1.10,2013-04-27 12:05:00,
2013-04-27 08:20:00,55.0,49.0,30.38,South,175,0.0,-999.0,80,-99.99,,,0.00,weatherlink.com 1.10,2013-04-27 12:20:00,
2013-04-27 08:58:00,56.0,49.0,30.38,South,175,0.0,-999.0,78,-99.99,,,0.00,weatherlink.com 1.10,2013-04-27 12:58:00,
2013-04-27 09:05:00,58.6,50.0,30.38,SSW,192,0.0,-999.0,74,-99.99,,,0.00,weatherlink.com 1.10,2013-04-27 13:05:00,
2013-04-27 09:20:00,59.4,51.0,30.38,SSW,192,0.0,-999.0,75,-99.99,,,0.00,weatherlink.com 1.10,2013-04-27 13:20:00,
2013-04-27 09:58:00,60.3,51.0,30.38,SSW,192,0.0,-999.0,72,-99.99,,,0.00,weatherlink.com 1.10,2013-04-27 13:58:00,
2013-04-27 10:05:00,62.1,51.0,30.37,SSW,192,0.0,-999.0,67,-99.99,,,0.00,weatherlink.com 1.10,2013-04-27 14:05:00,
2013-04-27 10:20:00,63.2,50.0,30.37,South,174,0.0,-999.0,63,-99.99,,,0.00,weatherlink.com 1.10,2013-04-27 14:20:00,
2013-04-27 10:58:00,63.8,47.0,30.37,South,171,0.0,-999.0,55,-99.99,,,0.00,weatherlink.com 1.10,2013-04-27 14:58:00,
2013-04-27 11:05:00,65.8,46.0,30.36,SE,144,0.0,-999.0,50,-99.99,,,0.00,weatherlink.com 1.10,2013-04-27 15:05:00,
2013-04-27 11:20:00,66.3,44.0,30.37,ESE,116,1.0,-999.0,45,-99.99,,,0.00,weatherlink.com 1.10,2013-04-27 15:20:00,
2013-04-27 11:58:00,67.0,41.0,30.37,East,96,0.0,-999.0,39,-99.99,,,0.00,weatherlink.com 1.10,2013-04-27 15:58:00,
2013-04-27 12:05:00,68.1,43.0,30.35,East,96,0.0,-999.0,40,-99.99,,,0.00,weatherlink.com 1.10,2013-04-27 16:05:00,
2013-04-27 12:20:00,68.5,42.0,30.35,East,97,0.0,-999.0,38,-99.99,,,0.00,weatherlink.com 1.10,2013-04-27 16:20:00,
2013-04-27 12:58:00,68.7,42.0,30.34,East,97,0.0,-999.0,38,-99.99,,,0.00,weatherlink.com 1.10,2013-04-27 16:58:00,
2013-04-27 13:05:00,70.2,44.0,30.33,East,96,0.0,-999.0,39,-99.99,,,0.00,weatherlink.com 1.10,2013-04-27 17:05:00,
2013-04-27 13:20:00,70.6,43.0,30.32,East,98,0.0,-999.0,37,-99.99,,,0.00,weatherlink.com 1.10,2013-04-27 17:20:00,
2013-04-27 13:58:00,70.8,45.0,30.32,ESE,113,0.0,-999.0,39,-99.99,,,0.00,weatherlink.com 1.10,2013-04-27 17:58:00,
2013-04-27 14:05:00,71.2,46.0,30.32,East,96,0.0,-999.0,40,-99.99,,,0.00,weatherlink.com 1.10,2013-04-27 18:05:00,
2013-04-27 14:20:00,71.3,46.0,30.31,East,96,0.0,-999.0,40,-99.99,,,0.00,weatherlink.com 1.10,2013-04-27 18:20:00,
2013-04-27 14:58:00,71.2,46.0,30.31,South,169,0.0,-999.0,41,-99.99,,,0.00,weatherlink.com 1.10,2013-04-27 18:58:00,
2013-04-27 15:05:00,71.8,46.0,30.30,SE,125,0.0,-999.0,40,-99.99,,,0.00,weatherlink.com 1.10,2013-04-27 19:05:00,
2013-04-27 15:20:00,72.0,46.0,30.30,East,96,0.0,-999.0,39,-99.99,,,0.00,weatherlink.com 1.10,2013-04-27 19:20:00,
2013-04-27 15:58:00,71.8,45.0,30.29,East,101,0.0,-999.0,38,-99.99,,,0.00,weatherlink.com 1.10,2013-04-27 19:58:00,
2013-04-27 16:05:00,71.6,47.0,30.29,East,101,0.0,-999.0,41,-99.99,,,0.00,weatherlink.com 1.10,2013-04-27 20:05:00,
2013-04-27 16:20:00,71.5,46.0,30.29,East,101,0.0,-999.0,40,-99.99,,,0.00,weatherlink.com 1.10,2013-04-27 20:20:00,
2013-04-27 16:58:00,71.2,46.0,30.29,East,101,0.0,-999.0,41,-99.99,,,0.00,weatherlink.com 1.10,2013-04-27 20:58:00,
2013-04-27 17:05:00,70.5,45.0,30.29,East,101,0.0,-999.0,40,-99.99,,,0.00,weatherlink.com 1.10,2013-04-27 21:05:00,
2013-04-27 17:20:00,70.3,45.0,30.28,East,101,0.0,-999.0,40,-99.99,,,0.00,weatherlink.com 1.10,2013-04-27 21:20:00,
2013-04-27 17:58:00,70.2,45.0,30.28,East,101,0.0,-999.0,41,-99.99,,,0.00,weatherlink.com 1.10,2013-04-27 21:58:00,
2013-04-27 18:05:00,70.1,46.0,30.28,East,101,0.0,-999.0,42,-99.99,,,0.00,weatherlink.com 1.10,2013-04-27 22:05:00,
2013-04-27 18:20:00,70.0,46.0,30.28,East,101,0.0,-999.0,43,-99.99,,,0.00,weatherlink.com 1.10,2013-04-27 22:20:00,
2013-04-27 18:58:00,69.8,47.0,30.28,East,101,0.0,-999.0,45,-99.99,,,0.00,weatherlink.com 1.10,2013-04-27 22:58:00,
2013-04-27 19:05:00,69.1,48.0,30.27,East,101,0.0,-999.0,47,-99.99,,,0.00,weatherlink.com 1.10,2013-04-27 23:05:00,
2013-04-27 19:20:00,68.8,49.0,30.27,East,101,0.0,-999.0,49,-99.99,,,0.00,weatherlink.com 1.10,2013-04-27 23:20:00,
2013-04-27 19:57:00,68.5,48.0,30.27,East,101,0.0,-999.0,49,-99.99,,,0.00,weatherlink.com 1.10,2013-04-27 23:57:00,
2013-04-27 20:04:00,67.4,51.0,30.27,East,101,0.0,-999.0,55,-99.99,,,0.00,weatherlink.com 1.10,2013-04-28 00:04:00,
2013-04-27 20:19:00,66.8,51.0,30.26,East,101,0.0,-999.0,57,-99.99,,,0.00,weatherlink.com 1.10,2013-04-28 00:19:00,
2013-04-27 20:58:00,66.2,51.0,30.27,East,101,0.0,-999.0,58,-99.99,,,0.00,weatherlink.com 1.10,2013-04-28 00:58:00,
2013-04-27 21:05:00,65.0,52.0,30.28,East,101,0.0,-999.0,63,-99.99,,,0.00,weatherlink.com 1.10,2013-04-28 01:05:00,
2013-04-27 21:20:00,64.6,52.0,30.28,East,101,0.0,-999.0,64,-99.99,,,0.00,weatherlink.com 1.10,2013-04-28 01:20:00,
2013-04-27 21:57:00,63.9,52.0,30.28,East,101,0.0,-999.0,65,-99.99,,,0.00,weatherlink.com 1.10,2013-04-28 01:57:00,
2013-04-27 22:04:00,63.9,53.0,30.28,East,101,0.0,-999.0,68,-99.99,,,0.00,weatherlink.com 1.10,2013-04-28 02:04:00,
2013-04-27 22:19:00,63.7,53.0,30.28,East,101,0.0,-999.0,69,-99.99,,,0.00,weatherlink.com 1.10,2013-04-28 02:19:00,
2013-04-27 22:57:00,63.4,54.0,30.28,East,101,0.0,-999.0,71,-99.99,,,0.00,weatherlink.com 1.10,2013-04-28 02:57:00,
2013-04-27 23:04:00,62.3,55.0,30.27,East,101,0.0,-999.0,77,-99.99,,,0.00,weatherlink.com 1.10,2013-04-28 03:04:00,
2013-04-27 23:19:00,61.8,55.0,30.27,East,101,0.0,-999.0,79,-99.99,,,0.00,weatherlink.com 1.10,2013-04-28 03:19:00,
2013-04-27 23:57:00,61.4,55.0,30.26,East,101,0.0,-999.0,79,-99.99,,,0.00,weatherlink.com 1.10,2013-04-28 03:57:00,